Time;durP1;ratioP1;P1;durP2;ratioP2;P2;SDS_P1;SDS_P2;PMS_P1;PMS_P2;Temp;Humidity;BMP_temperature;BMP_pressure;BME280_temperature;BME280_humidity;BME280_pressure;Samples;Min_cycle;Max_cycle;Signal;HPM_P1;HPM_P2
2022/11/27 00:01:14;;;;;;;9.20;2.50;;;11.30;99.90;;;;;;4999072;28;20490;-84
2022/11/27 00:03:40;;;;;;;10.75;2.75;;;11.30;99.90;;;;;;4999195;28;20117;-85
2022/11/27 00:06:07;;;;;;;8.07;3.10;;;11.30;99.90;;;;;;5018462;28;20026;-85
2022/11/27 00:08:33;;;;;;;7.85;2.50;;;11.30;99.90;;;;;;5014752;28;20029;-85
2022/11/27 00:11:09;;;;;;;6.53;2.20;;;11.30;99.90;;;;;;5012602;28;20029;-85
2022/11/27 00:13:36;;;;;;;8.80;2.17;;;11.30;99.90;;;;;;5014362;28;20037;-85
2022/11/27 00:16:02;;;;;;;6.25;2.20;;;11.30;99.90;;;;;;5017271;28;20057;-85
2022/11/27 00:18:28;;;;;;;7.97;2.70;;;11.30;99.90;;;;;;4989215;28;20065;-85
2022/11/27 00:20:54;;;;;;;8.18;2.13;;;11.30;99.90;;;;;;4996524;28;20026;-85
2022/11/27 00:23:19;;;;;;;9.32;2.35;;;11.30;99.90;;;;;;4994350;28;20525;-86
2022/11/27 00:25:52;;;;;;;6.97;2.33;;;11.30;99.90;;;;;;5001566;28;20022;-85
2022/11/27 00:28:19;;;;;;;11.00;2.60;;;11.30;99.90;;;;;;4989956;28;20035;-86
2022/11/27 00:30:45;;;;;;;8.82;2.45;;;11.30;99.90;;;;;;5001542;28;20057;-86
2022/11/27 00:33:10;;;;;;;9.55;2.25;;;11.30;99.90;;;;;;5017929;28;20034;-86
2022/11/27 00:35:38;;;;;;;10.15;2.45;;;11.30;99.90;;;;;;4999227;28;20040;-86
2022/11/27 00:38:04;;;;;;;10.07;2.40;;;11.30;99.90;;;;;;5010797;28;20030;-85
2022/11/27 00:40:30;;;;;;;10.82;2.60;;;11.30;99.90;;;;;;4996674;28;20512;-86
2022/11/27 00:42:55;;;;;;;10.75;2.28;;;11.30;99.90;;;;;;5015243;28;20487;-85
2022/11/27 00:45:21;;;;;;;10.32;2.38;;;11.30;99.90;;;;;;5001054;28;20026;-86
2022/11/27 00:47:47;;;;;;;5.50;1.75;;;11.30;99.90;;;;;;5018344;28;20105;-86
2022/11/27 00:50:13;;;;;;;7.13;2.28;;;11.30;99.90;;;;;;5000911;28;20025;-86
2022/11/27 00:52:38;;;;;;;7.20;2.08;;;11.30;99.90;;;;;;5000971;28;20026;-85
2022/11/27 00:55:05;;;;;;;7.22;2.15;;;11.30;99.90;;;;;;5010042;28;20498;-86
2022/11/27 00:57:30;;;;;;;9.02;2.60;;;11.30;99.90;;;;;;5012499;28;20041;-86
2022/11/27 00:59:56;;;;;;;6.30;1.98;;;11.30;99.90;;;;;;5000297;28;20030;-85
2022/11/27 01:02:22;;;;;;;7.43;2.53;;;11.30;99.90;;;;;;4999865;28;20026;-86
2022/11/27 01:04:48;;;;;;;9.13;2.33;;;11.30;99.90;;;;;;5000209;28;20033;-85
2022/11/27 01:07:14;;;;;;;6.30;2.20;;;11.30;99.90;;;;;;5009368;28;20053;-85
2022/11/27 01:09:39;;;;;;;7.93;2.28;;;11.30;99.90;;;;;;5000508;28;20501;-85
2022/11/27 01:12:05;;;;;;;7.82;2.08;;;11.30;99.90;;;;;;4999589;28;20121;-86
2022/11/27 01:14:31;;;;;;;9.57;2.30;;;11.30;99.90;;;;;;4998192;28;20053;-85
2022/11/27 01:16:57;;;;;;;11.00;2.75;;;11.30;99.90;;;;;;5017559;28;20136;-85
2022/11/27 01:19:22;;;;;;;6.65;2.33;;;11.30;99.90;;;;;;5000510;28;20057;-85
2022/11/27 01:21:48;;;;;;;9.23;2.20;;;11.30;99.90;;;;;;5013481;28;20079;-85
2022/11/27 01:24:15;;;;;;;10.35;2.75;;;11.30;99.90;;;;;;5017697;28;20034;-85
2022/11/27 01:26:41;;;;;;;7.20;2.45;;;11.30;99.90;;;;;;5000409;28;20030;-85
2022/11/27 01:29:07;;;;;;;7.78;2.00;;;11.30;99.90;;;;;;5018044;28;20100;-85
2022/11/27 01:31:34;;;;;;;7.65;2.17;;;11.30;99.90;;;;;;4987394;28;20478;-85
2022/11/27 01:34:04;;;;;;;7.63;2.30;;;11.30;99.90;;;;;;5006818;28;20030;-84
2022/11/27 01:36:31;;;;;;;7.80;2.28;;;11.30;99.90;;;;;;5017983;28;20052;-85
2022/11/27 01:38:57;;;;;;;11.93;2.75;;;11.30;99.90;;;;;;4999980;28;20030;-85
2022/11/27 01:41:29;;;;;;;7.97;1.88;;;11.40;99.90;;;;;;4999927;28;20026;-85
2022/11/27 01:44:23;;;;;;;6.35;1.90;;;11.30;99.90;;;;;;5000372;28;20449;-85
2022/11/27 01:47:06;;;;;;;4.47;1.75;;;11.30;99.90;;;;;;4999768;28;20522;-85
2022/11/27 01:49:49;;;;;;;4.93;1.95;;;11.30;99.90;;;;;;5001656;28;20033;-85
2022/11/27 01:52:33;;;;;;;5.15;2.08;;;11.40;99.90;;;;;;5004497;28;20042;-85
2022/11/27 01:55:07;;;;;;;6.72;2.10;;;11.30;99.90;;;;;;5021389;28;20034;-85
2022/11/27 01:57:44;;;;;;;5.28;1.77;;;11.40;99.90;;;;;;5003993;28;20026;-85
2022/11/27 02:00:12;;;;;;;4.25;1.83;;;11.40;99.90;;;;;;5022207;28;20470;-85
2022/11/27 02:02:42;;;;;;;13.38;2.28;;;11.40;99.90;;;;;;4995060;28;20109;-85
2022/11/27 02:05:10;;;;;;;5.57;1.95;;;11.40;99.90;;;;;;5021111;28;20026;-85
2022/11/27 02:07:35;;;;;;;6.13;1.80;;;11.40;99.90;;;;;;5001179;28;20025;-85
2022/11/27 02:10:03;;;;;;;5.35;1.80;;;11.40;99.90;;;;;;5018613;28;20030;-85
2022/11/27 02:12:29;;;;;;;4.07;1.63;;;11.40;99.90;;;;;;4989779;28;20021;-85
2022/11/27 02:15:22;;;;;;;4.90;2.03;;;11.40;99.90;;;;;;4994098;28;20113;-85
2022/11/27 02:17:56;;;;;;;6.63;2.00;;;11.40;99.90;;;;;;4999887;28;20124;-85
2022/11/27 02:20:52;;;;;;;3.22;1.40;;;11.40;99.90;;;;;;4998649;28;20500;-85
2022/11/27 02:23:21;;;;;;;6.93;2.13;;;11.40;99.90;;;;;;5008914;28;20494;-85
2022/11/27 02:26:00;;;;;;;2.85;1.60;;;11.40;99.90;;;;;;4998150;28;20030;-84
2022/11/27 02:28:41;;;;;;;4.80;2.10;;;11.40;99.90;;;;;;5013719;28;20018;-85
2022/11/27 02:31:37;;;;;;;3.40;1.65;;;11.40;99.90;;;;;;5003555;28;20117;-85
2022/11/27 02:34:23;;;;;;;4.63;1.33;;;11.40;99.90;;;;;;4965588;28;20125;-85
2022/11/27 02:36:56;;;;;;;3.13;1.63;;;11.40;99.90;;;;;;5003028;28;20022;-85
2022/11/27 02:39:27;;;;;;;3.70;1.67;;;11.40;99.90;;;;;;5002811;28;20494;-85
2022/11/27 02:42:01;;;;;;;3.72;1.50;;;11.40;99.90;;;;;;4997138;28;20025;-86
2022/11/27 02:44:32;;;;;;;4.88;2.00;;;11.40;99.90;;;;;;5001646;28;20034;-85
2022/11/27 02:46:59;;;;;;;5.15;1.98;;;11.40;99.90;;;;;;5002860;28;20140;-84
2022/11/27 02:49:26;;;;;;;3.45;1.67;;;11.40;99.90;;;;;;5020250;28;20469;-85
2022/11/27 02:51:55;;;;;;;5.43;1.65;;;11.40;99.90;;;;;;5002133;28;20022;-85
2022/11/27 02:54:26;;;;;;;5.10;2.05;;;11.50;99.90;;;;;;5003080;28;20054;-86
2022/11/27 02:56:54;;;;;;;4.00;1.73;;;11.50;99.90;;;;;;5019900;28;20026;-85
2022/11/27 02:59:22;;;;;;;3.10;1.27;;;11.40;99.90;;;;;;5001958;28;20494;-86
2022/11/27 03:01:55;;;;;;;5.70;1.70;;;11.50;99.90;;;;;;5001987;28;20113;-85
2022/11/27 03:04:27;;;;;;;4.13;1.58;;;11.50;99.90;;;;;;5000711;28;20410;-85
2022/11/27 03:06:59;;;;;;;5.05;1.65;;;11.40;99.90;;;;;;5002665;28;20033;-86
2022/11/27 03:09:37;;;;;;;4.00;1.50;;;11.50;99.90;;;;;;5019784;28;20022;-85
2022/11/27 03:12:05;;;;;;;2.83;1.35;;;11.50;99.90;;;;;;5017608;28;20029;-85
2022/11/27 03:14:32;;;;;;;3.35;1.60;;;11.50;99.90;;;;;;4997793;28;20104;-85
2022/11/27 03:17:25;;;;;;;2.80;1.23;;;11.50;99.90;;;;;;5006870;28;20053;-85
2022/11/27 03:19:59;;;;;;;4.70;1.77;;;11.50;99.90;;;;;;5006856;28;20494;-86
2022/11/27 03:22:27;;;;;;;2.13;1.30;;;11.50;99.90;;;;;;5002349;28;20061;-85
2022/11/27 03:24:53;;;;;;;4.20;1.55;;;11.50;99.90;;;;;;5019708;28;20033;-85
2022/11/27 03:27:27;;;;;;;3.55;1.30;;;11.50;99.90;;;;;;5002345;28;20030;-85
2022/11/27 03:29:59;;;;;;;3.72;1.33;;;11.50;99.90;;;;;;5002223;28;20426;-84
2022/11/27 03:32:26;;;;;;;2.38;1.27;;;11.50;99.90;;;;;;5007643;28;20094;-86
2022/11/27 03:34:53;;;;;;;1.80;1.38;;;11.50;99.90;;;;;;5018840;28;20030;-86
2022/11/27 03:37:20;;;;;;;3.83;1.80;;;11.50;99.90;;;;;;5016971;28;20176;-83
2022/11/27 03:39:45;;;;;;;4.32;1.50;;;11.60;99.90;;;;;;5001719;28;20026;-85
2022/11/27 03:42:53;;;;;;;3.35;1.83;;;11.60;99.90;;;;;;5019625;28;20037;-84
2022/11/27 03:45:42;;;;;;;4.95;1.65;;;11.50;99.90;;;;;;5006072;28;20141;-84
2022/11/27 03:48:40;;;;;;;4.22;1.67;;;11.50;99.90;;;;;;4992373;28;20033;-84
2022/11/27 03:51:28;;;;;;;2.47;1.50;;;11.60;99.90;;;;;;4997278;28;20030;-84
2022/11/27 03:54:09;;;;;;;2.67;1.27;;;11.50;99.90;;;;;;5013797;28;20079;-83
2022/11/27 03:56:58;;;;;;;3.97;1.73;;;11.50;99.90;;;;;;5019251;28;20104;-85
2022/11/27 03:59:35;;;;;;;2.97;1.50;;;11.50;99.90;;;;;;5012738;28;20113;-86
2022/11/27 04:02:00;;;;;;;2.55;1.40;;;11.60;99.90;;;;;;4993371;28;20069;-87
2022/11/27 04:04:26;;;;;;;3.30;1.65;;;11.60;99.90;;;;;;5001517;28;20026;-87
2022/11/27 04:06:52;;;;;;;2.88;1.60;;;11.60;99.90;;;;;;5000514;28;20398;-84
2022/11/27 04:09:18;;;;;;;4.07;1.65;;;11.60;99.90;;;;;;5016405;28;20132;-84
2022/11/27 04:11:44;;;;;;;3.67;1.52;;;11.60;99.90;;;;;;5017940;28;20522;-85
2022/11/27 04:14:09;;;;;;;3.92;1.67;;;11.60;99.90;;;;;;4999270;28;20121;-84
2022/11/27 04:16:35;;;;;;;2.70;1.40;;;11.60;99.90;;;;;;4998580;28;20049;-85
2022/11/27 04:19:01;;;;;;;4.43;1.60;;;11.60;99.90;;;;;;4997591;28;20045;-85
2022/11/27 04:21:26;;;;;;;4.93;1.40;;;11.70;99.90;;;;;;5018285;28;20076;-85
2022/11/27 04:23:52;;;;;;;3.15;1.30;;;11.60;99.90;;;;;;5016790;28;20037;-85
2022/11/27 04:26:17;;;;;;;2.72;1.55;;;11.60;99.90;;;;;;4998177;28;20037;-85
2022/11/27 04:28:43;;;;;;;4.20;1.33;;;11.60;99.90;;;;;;4996860;28;20026;-85
2022/11/27 04:31:09;;;;;;;4.30;1.50;;;11.70;99.90;;;;;;5018083;28;20028;-85
2022/11/27 04:33:34;;;;;;;5.45;1.67;;;11.70;99.90;;;;;;4999839;28;20032;-85
2022/11/27 04:36:00;;;;;;;3.10;1.63;;;11.70;99.90;;;;;;5008791;28;20490;-85
2022/11/27 04:38:26;;;;;;;3.90;1.75;;;11.70;99.90;;;;;;5012749;28;20022;-85
2022/11/27 04:40:52;;;;;;;3.67;1.75;;;11.70;99.90;;;;;;4987821;28;20442;-86
2022/11/27 04:43:18;;;;;;;1.95;1.20;;;11.70;99.90;;;;;;4988879;28;20036;-85
2022/11/27 04:45:44;;;;;;;3.63;1.48;;;11.70;99.90;;;;;;4993849;28;20026;-84
2022/11/27 04:48:10;;;;;;;3.08;1.70;;;11.70;99.90;;;;;;5000680;28;20029;-84
2022/11/27 04:50:35;;;;;;;4.13;2.10;;;11.70;99.90;;;;;;4997515;28;20026;-84
2022/11/27 04:53:01;;;;;;;2.65;1.60;;;11.70;99.90;;;;;;4991439;28;20109;-85
2022/11/27 04:55:27;;;;;;;2.95;1.63;;;11.70;99.90;;;;;;5000582;28;20588;-84
2022/11/27 04:57:53;;;;;;;2.70;1.60;;;11.70;99.90;;;;;;5014150;28;20032;-84
2022/11/27 05:00:19;;;;;;;3.20;1.50;;;11.80;99.90;;;;;;4991424;28;20030;-84
2022/11/27 05:02:45;;;;;;;2.83;1.73;;;11.80;99.90;;;;;;5013089;28;20459;-84
2022/11/27 05:05:11;;;;;;;1.85;1.30;;;11.80;99.90;;;;;;4997266;28;20037;-84
2022/11/27 05:07:36;;;;;;;3.88;1.92;;;11.80;99.90;;;;;;5005457;28;20026;-84
2022/11/27 05:10:04;;;;;;;3.88;1.38;;;11.80;99.90;;;;;;5016428;28;20034;-83
2022/11/27 05:12:29;;;;;;;6.40;2.20;;;11.80;99.90;;;;;;5013790;28;20410;-83
2022/11/27 05:14:55;;;;;;;4.50;1.75;;;11.80;99.90;;;;;;5009887;28;20037;-83
2022/11/27 05:17:20;;;;;;;5.10;1.90;;;11.80;99.90;;;;;;5022230;28;20398;-84
2022/11/27 05:19:46;;;;;;;3.13;1.50;;;11.80;99.90;;;;;;5000137;28;20034;-83
2022/11/27 05:22:12;;;;;;;2.22;1.30;;;11.80;99.90;;;;;;5016004;28;20045;-83
2022/11/27 05:24:37;;;;;;;3.40;1.73;;;11.90;99.90;;;;;;5007365;28;20037;-84
2022/11/27 05:27:03;;;;;;;3.58;1.50;;;11.90;99.90;;;;;;4995280;28;20380;-84
2022/11/27 05:29:29;;;;;;;4.68;1.60;;;11.80;99.90;;;;;;5017482;28;20080;-83
2022/11/27 05:31:54;;;;;;;4.95;1.73;;;11.90;99.90;;;;;;4992560;28;20025;-83
2022/11/27 05:34:20;;;;;;;2.50;1.73;;;11.90;99.90;;;;;;5015777;28;20045;-83
2022/11/27 05:36:46;;;;;;;2.92;1.35;;;11.90;99.90;;;;;;5016381;28;20021;-83
2022/11/27 05:39:12;;;;;;;4.63;2.03;;;11.90;99.90;;;;;;4990786;28;20034;-84
2022/11/27 05:41:40;;;;;;;4.55;2.30;;;11.90;99.90;;;;;;5017642;28;20049;-84
2022/11/27 05:44:05;;;;;;;4.13;2.20;;;11.90;99.90;;;;;;5000136;28;20438;-84
2022/11/27 05:46:31;;;;;;;5.60;2.85;;;11.90;99.90;;;;;;4995339;28;20018;-84
2022/11/27 05:48:57;;;;;;;3.88;2.78;;;11.90;99.90;;;;;;5008937;28;20033;-84
2022/11/27 05:51:23;;;;;;;5.05;2.83;;;11.90;99.90;;;;;;5017423;28;20022;-84
2022/11/27 05:53:49;;;;;;;7.20;3.53;;;11.90;99.90;;;;;;4999998;28;20041;-84
2022/11/27 05:56:17;;;;;;;4.90;3.55;;;11.90;99.90;;;;;;4999666;28;20030;-84
2022/11/27 05:58:45;;;;;;;5.75;2.65;;;12.00;99.90;;;;;;5009235;28;20070;-83
2022/11/27 06:01:12;;;;;;;3.33;1.85;;;11.90;99.90;;;;;;5018065;28;20045;-84
2022/11/27 06:03:37;;;;;;;4.18;1.70;;;11.90;99.90;;;;;;5008165;28;20037;-85
2022/11/27 06:06:15;;;;;;;3.50;1.88;;;11.90;99.90;;;;;;4999326;28;20022;-86
2022/11/27 06:08:41;;;;;;;5.15;1.63;;;11.90;99.90;;;;;;5012242;28;20037;-85
2022/11/27 06:11:09;;;;;;;2.67;1.60;;;11.90;99.90;;;;;;4998127;28;20505;-84
2022/11/27 06:13:35;;;;;;;5.72;2.05;;;11.90;99.90;;;;;;4997391;28;20038;-84
2022/11/27 06:16:12;;;;;;;5.18;1.52;;;11.90;99.90;;;;;;4999156;28;20510;-85
2022/11/27 06:18:38;;;;;;;5.40;1.63;;;11.90;99.90;;;;;;4998163;28;20030;-84
2022/11/27 06:21:13;;;;;;;4.30;2.17;;;11.90;99.90;;;;;;5017280;28;20036;-85
2022/11/27 06:23:40;;;;;;;2.38;1.67;;;11.90;99.90;;;;;;5016800;28;20048;-86
2022/11/27 06:26:15;;;;;;;4.07;1.92;;;11.90;99.90;;;;;;4999597;28;20430;-85
2022/11/27 06:28:41;;;;;;;3.45;2.00;;;11.90;99.90;;;;;;4997832;28;20429;-86
2022/11/27 06:31:12;;;;;;;7.07;1.90;;;11.90;99.90;;;;;;4991107;28;20033;-86
2022/11/27 06:33:37;;;;;;;4.28;1.90;;;11.90;99.90;;;;;;5017170;28;20026;-85
2022/11/27 06:36:05;;;;;;;4.53;2.28;;;11.90;99.90;;;;;;5017740;28;20433;-85
2022/11/27 06:38:32;;;;;;;2.78;1.88;;;11.90;99.90;;;;;;5002899;28;20093;-84
2022/11/27 06:41:06;;;;;;;5.55;2.10;;;11.90;99.90;;;;;;5003508;28;20033;-85
2022/11/27 06:43:32;;;;;;;3.85;1.88;;;11.90;99.90;;;;;;5019782;28;20041;-85
2022/11/27 06:45:58;;;;;;;3.65;2.00;;;11.90;99.90;;;;;;4995203;28;20022;-85
2022/11/27 06:48:25;;;;;;;3.78;1.65;;;11.90;99.90;;;;;;5003241;28;20520;-85
2022/11/27 06:50:50;;;;;;;3.30;1.52;;;11.90;99.90;;;;;;5012245;28;20022;-85
2022/11/27 06:53:16;;;;;;;2.08;1.60;;;11.90;99.90;;;;;;5004042;28;20441;-87
2022/11/27 06:55:42;;;;;;;3.97;1.90;;;11.90;99.90;;;;;;4997397;28;20029;-86
2022/11/27 06:58:08;;;;;;;4.25;1.80;;;12.00;99.90;;;;;;4998497;28;20026;-86
2022/11/27 07:00:33;;;;;;;2.45;1.70;;;11.90;99.90;;;;;;5003424;28;20029;-86
2022/11/27 07:02:59;;;;;;;3.45;1.83;;;11.90;99.90;;;;;;4999746;28;20014;-86
2022/11/27 07:05:24;;;;;;;3.05;1.60;;;11.90;99.90;;;;;;5003358;28;20505;-86
2022/11/27 07:07:50;;;;;;;2.35;1.50;;;11.90;99.90;;;;;;4996947;28;20116;-86
2022/11/27 07:10:16;;;;;;;3.65;1.90;;;12.00;99.90;;;;;;5003332;28;20138;-86
2022/11/27 07:12:41;;;;;;;3.53;1.58;;;12.00;99.90;;;;;;4993669;28;20486;-86
2022/11/27 07:15:08;;;;;;;3.10;1.73;;;11.90;99.90;;;;;;5014030;28;20030;-86
2022/11/27 07:17:33;;;;;;;2.72;1.77;;;12.00;99.90;;;;;;5002956;28;20040;-86
2022/11/27 07:19:59;;;;;;;3.35;1.70;;;12.00;99.90;;;;;;5002707;28;20461;-84
2022/11/27 07:22:24;;;;;;;3.83;1.90;;;12.00;99.90;;;;;;5002797;28;20390;-86
2022/11/27 07:24:50;;;;;;;3.25;1.67;;;12.00;99.90;;;;;;5002454;28;20026;-86
2022/11/27 07:27:16;;;;;;;3.42;2.00;;;12.00;99.90;;;;;;5003055;28;20034;-86
2022/11/27 07:29:41;;;;;;;5.32;2.00;;;12.00;99.90;;;;;;4999182;28;20026;-85
2022/11/27 07:32:07;;;;;;;3.13;1.75;;;12.00;99.90;;;;;;5002357;28;20581;-86
2022/11/27 07:34:32;;;;;;;2.00;1.48;;;12.00;99.90;;;;;;5002000;28;20089;-86
2022/11/27 07:36:58;;;;;;;3.25;1.67;;;12.00;99.90;;;;;;5001508;28;20032;-86
2022/11/27 07:39:24;;;;;;;2.17;1.38;;;12.00;99.90;;;;;;5020152;28;20034;-86
2022/11/27 07:41:49;;;;;;;2.88;1.55;;;12.00;99.90;;;;;;5002563;28;20025;-86
2022/11/27 07:44:15;;;;;;;2.97;1.45;;;12.00;99.90;;;;;;5002270;28;20033;-86
2022/11/27 07:46:41;;;;;;;4.07;1.80;;;12.10;99.90;;;;;;5020011;28;20029;-85
2022/11/27 07:49:06;;;;;;;3.75;1.63;;;12.10;99.90;;;;;;5002716;28;20022;-85
2022/11/27 07:51:32;;;;;;;3.38;1.33;;;12.10;99.90;;;;;;5020133;28;20029;-87
2022/11/27 07:53:59;;;;;;;1.98;1.50;;;12.10;99.90;;;;;;5002919;28;20044;-85
2022/11/27 07:56:26;;;;;;;3.08;1.38;;;12.10;99.90;;;;;;5020416;28;20029;-86
2022/11/27 07:58:51;;;;;;;2.30;1.55;;;12.10;99.90;;;;;;4989126;28;20120;-88
2022/11/27 08:01:18;;;;;;;2.08;1.67;;;12.10;99.90;;;;;;5000609;28;20056;-86
2022/11/27 08:03:44;;;;;;;2.80;1.42;;;12.10;99.90;;;;;;5000651;28;20033;-87
2022/11/27 08:06:22;;;;;;;3.53;1.65;;;12.20;99.90;;;;;;5007052;28;20374;-86
2022/11/27 08:08:48;;;;;;;3.33;1.40;;;12.20;99.90;;;;;;5019934;28;20112;-87
2022/11/27 08:11:19;;;;;;;3.72;1.73;;;12.20;99.90;;;;;;5019485;28;20100;-86
2022/11/27 08:13:45;;;;;;;2.13;1.63;;;12.20;99.90;;;;;;5001696;28;20117;-87
2022/11/27 08:16:11;;;;;;;4.07;1.70;;;12.20;99.90;;;;;;5001470;28;20132;-86
2022/11/27 08:18:36;;;;;;;2.83;1.58;;;12.30;99.90;;;;;;5006064;28;21544;-87
2022/11/27 08:21:02;;;;;;;3.17;1.38;;;12.30;99.90;;;;;;5000142;28;20113;-87
2022/11/27 08:23:28;;;;;;;2.63;1.33;;;12.30;99.90;;;;;;5017138;28;20061;-87
2022/11/27 08:25:53;;;;;;;1.95;1.20;;;12.30;99.90;;;;;;5002452;28;20083;-87
2022/11/27 08:28:19;;;;;;;1.92;1.20;;;12.30;99.90;;;;;;4996193;28;20026;-87
2022/11/27 08:30:45;;;;;;;2.28;1.33;;;12.30;99.90;;;;;;5001425;28;20113;-86
2022/11/27 08:33:12;;;;;;;2.65;1.10;;;12.30;99.90;;;;;;5001342;28;20060;-87
2022/11/27 08:35:37;;;;;;;2.20;1.48;;;12.40;99.90;;;;;;4996824;28;20116;-86
2022/11/27 08:38:03;;;;;;;1.92;1.35;;;12.40;99.90;;;;;;5018248;28;20049;-87
2022/11/27 08:40:29;;;;;;;1.75;1.25;;;12.40;99.90;;;;;;5001607;28;20066;-86
2022/11/27 08:42:56;;;;;;;1.90;1.50;;;12.50;99.90;;;;;;5000716;28;20021;-86
2022/11/27 08:45:22;;;;;;;1.75;1.10;;;12.50;99.90;;;;;;5000557;28;20089;-86
2022/11/27 08:47:48;;;;;;;2.00;1.40;;;12.50;99.90;;;;;;5018194;28;20030;-86
2022/11/27 08:50:13;;;;;;;1.88;1.08;;;12.50;99.90;;;;;;5000542;28;20501;-86
2022/11/27 08:52:39;;;;;;;1.20;1.00;;;12.50;99.90;;;;;;5000565;28;20025;-86
2022/11/27 08:55:05;;;;;;;1.10;0.90;;;12.60;99.90;;;;;;4999755;28;20486;-87
2022/11/27 08:57:31;;;;;;;1.10;0.90;;;12.60;99.90;;;;;;5000376;28;20022;-87
2022/11/27 08:59:56;;;;;;;1.52;1.00;;;12.60;99.90;;;;;;5017816;28;20085;-87
2022/11/27 09:02:22;;;;;;;1.88;0.98;;;12.60;99.90;;;;;;5000558;28;20022;-87
2022/11/27 09:04:48;;;;;;;1.73;1.10;;;12.70;99.90;;;;;;5008155;28;20042;-85
2022/11/27 09:07:16;;;;;;;1.17;1.00;;;12.70;99.90;;;;;;4993487;28;20490;-85
2022/11/27 09:09:42;;;;;;;1.27;0.90;;;12.80;99.90;;;;;;5017946;28;20058;-87
2022/11/27 09:12:08;;;;;;;1.23;1.13;;;12.80;99.90;;;;;;5000067;28;20018;-87
2022/11/27 09:14:34;;;;;;;2.47;0.90;;;12.80;99.90;;;;;;5018578;28;20030;-86
2022/11/27 09:16:59;;;;;;;1.67;1.00;;;12.80;99.90;;;;;;5017245;28;20045;-86
2022/11/27 09:19:25;;;;;;;1.75;1.10;;;12.90;99.90;;;;;;5000292;28;20066;-86
2022/11/27 09:21:51;;;;;;;1.17;0.90;;;12.90;99.90;;;;;;5000205;28;20072;-86
2022/11/27 09:24:16;;;;;;;3.63;1.63;;;13.00;99.90;;;;;;5000412;28;20038;-86
2022/11/27 09:26:43;;;;;;;2.30;1.25;;;13.00;99.90;;;;;;4998094;28;20022;-86
2022/11/27 09:29:09;;;;;;;4.15;2.22;;;13.00;99.90;;;;;;5000741;28;20508;-87
2022/11/27 09:31:35;;;;;;;3.80;1.50;;;13.00;99.90;;;;;;5000041;28;20030;-86
2022/11/27 09:34:00;;;;;;;2.95;1.75;;;13.10;99.90;;;;;;4990690;28;20049;-86
2022/11/27 09:36:26;;;;;;;3.60;1.90;;;13.10;99.90;;;;;;4994808;28;20059;-86
2022/11/27 09:38:52;;;;;;;2.28;1.52;;;13.10;99.90;;;;;;5015532;28;20034;-86
2022/11/27 09:41:53;;;;;;;1.52;1.00;;;13.10;99.90;;;;;;5000121;28;20065;-86
2022/11/27 09:44:38;;;;;;;3.70;1.10;;;13.10;99.90;;;;;;4987041;28;20145;-86
2022/11/27 09:47:40;;;;;;;2.30;1.20;;;13.10;99.90;;;;;;5003899;28;20681;-86
2022/11/27 09:50:16;;;;;;;9.57;3.88;;;13.00;99.90;;;;;;5012187;28;20038;-86
2022/11/27 09:52:56;;;;;;;1.80;1.40;;;13.00;99.90;;;;;;5004209;28;20026;-86
2022/11/27 09:55:33;;;;;;;3.00;1.10;;;12.90;99.90;;;;;;5010022;28;20026;-86
2022/11/27 09:58:06;;;;;;;1.80;1.02;;;12.90;99.90;;;;;;5016378;28;20018;-86
2022/11/27 10:00:32;;;;;;;1.77;0.98;;;12.80;99.90;;;;;;4999497;28;20028;-86
2022/11/27 10:02:58;;;;;;;2.03;1.13;;;12.80;99.90;;;;;;5017491;28;20104;-87
2022/11/27 10:05:27;;;;;;;3.33;1.00;;;12.80;99.90;;;;;;5017260;28;20041;-86
2022/11/27 10:08:17;;;;;;;2.17;1.20;;;12.80;99.90;;;;;;4999661;28;20018;-86
2022/11/27 10:10:55;;;;;;;1.25;1.10;;;12.80;99.90;;;;;;5017448;28;20033;-86
2022/11/27 10:13:59;;;;;;;3.65;2.10;;;12.80;99.90;;;;;;5021583;28;20057;-85
2022/11/27 10:16:28;;;;;;;;;;;12.70;99.90;;;;;;4996516;28;20038;-86
2022/11/27 10:19:19;;;;;;;2.22;1.40;;;12.70;99.90;;;;;;5023283;28;19945;-85
2022/11/27 10:21:53;;;;;;;2.92;1.30;;;12.70;99.90;;;;;;5010409;28;20030;-86
2022/11/27 10:24:24;;;;;;;1.35;1.13;;;12.80;99.90;;;;;;4996371;28;20069;-86
2022/11/27 10:26:53;;;;;;;2.22;1.70;;;12.80;99.90;;;;;;5020980;28;20029;-86
2022/11/27 10:29:35;;;;;;;2.03;1.60;;;12.80;99.90;;;;;;5009508;28;20083;-86
2022/11/27 10:32:16;;;;;;;1.63;1.30;;;12.80;99.90;;;;;;4990910;28;20018;-86
2022/11/27 10:35:01;;;;;;;1.55;1.10;;;12.80;99.90;;;;;;4999230;28;20030;-87
2022/11/27 10:37:34;;;;;;;1.70;1.30;;;12.90;99.90;;;;;;4989043;28;20109;-87
2022/11/27 10:40:09;;;;;;;1.27;0.82;;;12.80;99.90;;;;;;5009652;28;20037;-87
2022/11/27 10:42:55;;;;;;;2.13;0.90;;;12.90;99.90;;;;;;5012494;28;20053;-86
2022/11/27 10:45:42;;;;;;;1.75;0.93;;;13.00;99.90;;;;;;5002620;28;20084;-87
2022/11/27 10:48:09;;;;;;;1.48;0.88;;;13.00;99.90;;;;;;5003159;28;20515;-86
2022/11/27 10:50:34;;;;;;;1.33;0.60;;;13.10;99.90;;;;;;5008656;28;20022;-87
2022/11/27 10:53:04;;;;;;;0.73;0.50;;;13.10;99.90;;;;;;4990006;28;20033;-87
2022/11/27 10:55:50;;;;;;;1.33;0.70;;;13.20;99.90;;;;;;5020614;28;20028;-86
2022/11/27 10:58:26;;;;;;;1.95;0.85;;;13.20;99.90;;;;;;4993439;28;20030;-86
2022/11/27 11:01:10;;;;;;;1.67;0.93;;;13.30;99.90;;;;;;4989924;28;20026;-86
2022/11/27 11:03:36;;;;;;;2.05;0.80;;;13.30;99.90;;;;;;4993615;28;20557;-85
2022/11/27 11:06:05;;;;;;;2.00;0.82;;;13.30;99.90;;;;;;5002612;28;20034;-85
2022/11/27 11:08:33;;;;;;;1.38;0.80;;;13.40;99.90;;;;;;5000856;28;20026;-86
2022/11/27 11:11:02;;;;;;;1.23;0.70;;;13.40;99.90;;;;;;5017315;28;20490;-86
2022/11/27 11:13:40;;;;;;;1.23;0.63;;;13.40;99.90;;;;;;5020136;28;20157;-85
2022/11/27 11:16:09;;;;;;;1.08;0.68;;;13.40;99.90;;;;;;5021152;28;20042;-87
2022/11/27 11:19:01;;;;;;;1.33;0.80;;;13.50;99.90;;;;;;5013681;28;20030;-87
2022/11/27 11:21:31;;;;;;;2.25;0.60;;;13.50;99.90;;;;;;5039129;28;20055;-89
2022/11/27 11:24:03;;;;;;;2.25;0.60;;;13.50;99.90;;;;;;5017349;28;20122;-88
2022/11/27 11:26:40;;;;;;;3.20;0.73;;;13.50;99.90;;;;;;5032582;28;20073;-87
2022/11/27 11:29:36;;;;;;;1.55;0.50;;;13.50;99.90;;;;;;5020857;28;20484;-88
2022/11/27 11:32:15;;;;;;;2.42;0.60;;;13.50;99.90;;;;;;5014271;28;20522;-88
2022/11/27 11:34:50;;;;;;;0.77;0.52;;;13.60;99.90;;;;;;5009624;28;20033;-87
2022/11/27 11:37:32;;;;;;;1.67;0.70;;;13.50;99.90;;;;;;5020936;28;20106;-87
2022/11/27 11:40:26;;;;;;;1.48;0.80;;;13.60;99.90;;;;;;5022402;28;20048;-87
2022/11/27 11:42:54;;;;;;;1.30;0.70;;;13.50;99.90;;;;;;5005994;28;20393;-87
2022/11/27 11:45:21;;;;;;;2.08;0.95;;;13.50;99.90;;;;;;5012531;28;20033;-85
2022/11/27 11:48:15;;;;;;;1.60;0.70;;;13.50;99.90;;;;;;5012796;28;20030;-85
2022/11/27 11:50:47;;;;;;;3.50;1.98;;;13.40;99.90;;;;;;5017600;28;20033;-85
2022/11/27 11:53:19;;;;;;;2.15;1.10;;;13.40;99.90;;;;;;5020913;28;20021;-87
2022/11/27 11:55:58;;;;;;;3.20;1.90;;;13.30;99.90;;;;;;5009833;28;20021;-86
2022/11/27 11:58:30;;;;;;;2.53;1.15;;;13.30;99.90;;;;;;5008047;28;20437;-85
2022/11/27 12:01:09;;;;;;;2.50;1.48;;;13.20;99.90;;;;;;5038522;28;20048;-84
2022/11/27 12:03:50;;;;;;;2.28;1.27;;;13.20;99.90;;;;;;5013839;28;20029;-87
2022/11/27 12:06:34;;;;;;;2.47;1.20;;;13.20;99.90;;;;;;5008863;28;20030;-88
2022/11/27 12:09:25;;;;;;;2.25;1.25;;;13.20;99.90;;;;;;5021298;28;20018;-87
2022/11/27 12:11:53;;;;;;;2.63;1.10;;;13.20;99.90;;;;;;5018030;28;20025;-82
2022/11/27 12:14:44;;;;;;;2.15;1.00;;;13.20;99.90;;;;;;5018586;28;20036;-83
2022/11/27 12:17:28;;;;;;;2.53;1.10;;;13.10;99.90;;;;;;5014330;28;20101;-85
2022/11/27 12:20:28;;;;;;;1.25;0.77;;;13.20;99.90;;;;;;5034652;28;20030;-87
2022/11/27 12:23:21;;;;;;;2.92;0.98;;;13.10;99.90;;;;;;4997557;28;20064;-85
2022/11/27 12:26:20;;;;;;;2.83;0.90;;;13.10;99.90;;;;;;5020013;28;20064;-87
2022/11/27 12:29:24;;;;;;;3.28;1.00;;;13.10;99.90;;;;;;5012920;28;20115;-82
2022/11/27 12:32:28;;;;;;;3.42;1.70;;;13.10;99.90;;;;;;5030156;28;20036;-83
2022/11/27 12:35:01;;;;;;;6.28;2.80;;;13.10;99.90;;;;;;5017592;28;20056;-82
2022/11/27 12:37:41;;;;;;;5.05;1.75;;;13.10;99.90;;;;;;5011836;28;20555;-83
2022/11/27 12:40:19;;;;;;;6.75;2.95;;;13.20;99.90;;;;;;5038311;28;20028;-83
2022/11/27 12:43:03;;;;;;;9.18;3.40;;;13.10;99.90;;;;;;5038270;28;20086;-84
2022/11/27 12:46:07;;;;;;;8.15;3.28;;;13.10;99.90;;;;;;5016925;28;20438;-83
2022/11/27 12:48:38;;;;;;;;;;;13.10;99.90;;;;;;5031303;28;20057;-85
2022/11/27 12:51:29;;;;;;;5.97;3.15;;;13.10;99.90;;;;;;5010794;28;19912;-88
2022/11/27 12:54:01;;;;;;;7.05;3.00;;;13.10;99.90;;;;;;5016177;28;20032;-83
2022/11/27 12:56:39;;;;;;;5.75;3.22;;;13.00;99.90;;;;;;5034091;28;20033;-83
2022/11/27 12:59:26;;;;;;;6.70;3.53;;;13.00;99.90;;;;;;5037241;28;20025;-83
2022/11/27 13:01:59;;;;;;;5.95;3.25;;;13.00;99.90;;;;;;5033999;28;20067;-83
2022/11/27 13:04:32;;;;;;;8.05;3.90;;;13.00;99.90;;;;;;5030935;28;20127;-83
2022/11/27 13:07:13;;;;;;;7.38;4.80;;;13.00;99.90;;;;;;5037507;28;20029;-82
2022/11/27 13:10:04;;;;;;;9.38;4.57;;;13.00;99.90;;;;;;5010970;28;20018;-80